Time;durP1;ratioP1;P1;durP2;ratioP2;P2;SDS_P1;SDS_P2;PMS_P1;PMS_P2;Temp;Humidity;BMP_temperature;BMP_pressure;BME280_temperature;BME280_humidity;BME280_pressure;Samples;Min_cycle;Max_cycle;Signal;HPM_P1;HPM_P2
2022/10/01 00:02:10;;;;;;;9.77;3.83;;;19.90;85.30;;;;;;4970219;28;20194;-77
2022/10/01 00:04:38;;;;;;;9.37;4.00;;;19.90;85.60;;;;;;4968401;28;20252;-77
2022/10/01 00:07:13;;;;;;;9.97;3.77;;;19.90;86.10;;;;;;4970085;28;20193;-77
2022/10/01 00:09:43;;;;;;;7.80;3.83;;;19.80;86.30;;;;;;4968184;28;20201;-77
2022/10/01 00:12:14;;;;;;;9.20;3.97;;;19.80;86.50;;;;;;4968671;28;20237;-76
2022/10/01 00:14:44;;;;;;;6.40;3.90;;;19.80;86.50;;;;;;4970997;28;20228;-77
2022/10/01 00:17:13;;;;;;;8.53;3.90;;;19.70;86.20;;;;;;4974523;28;20268;-77
2022/10/01 00:19:41;;;;;;;7.23;3.80;;;19.70;86.50;;;;;;4970536;28;20296;-77
2022/10/01 00:22:09;;;;;;;6.33;4.17;;;19.70;86.80;;;;;;4970697;28;20252;-77
2022/10/01 00:24:37;;;;;;;11.70;4.37;;;19.70;87.00;;;;;;4972690;28;20232;-77
2022/10/01 00:27:07;;;;;;;6.63;4.30;;;19.70;87.20;;;;;;4967918;28;20224;-78
2022/10/01 00:29:36;;;;;;;10.37;4.40;;;19.60;87.40;;;;;;4975357;28;20643;-77
2022/10/01 00:32:04;;;;;;;8.43;4.13;;;19.60;87.50;;;;;;4967799;28;20268;-77
2022/10/01 00:34:33;;;;;;;13.50;4.57;;;19.60;87.50;;;;;;4969618;28;20666;-78
2022/10/01 00:37:01;;;;;;;7.20;3.73;;;19.60;87.50;;;;;;4970527;28;20194;-77
2022/10/01 00:39:29;;;;;;;8.57;4.00;;;19.60;87.40;;;;;;4965160;28;20252;-77
2022/10/01 00:41:57;;;;;;;7.90;4.20;;;19.60;87.00;;;;;;4969478;28;20209;-77
2022/10/01 00:44:36;;;;;;;8.60;4.37;;;19.60;86.90;;;;;;4966457;28;20295;-77
2022/10/01 00:47:11;;;;;;;9.13;4.30;;;19.60;86.70;;;;;;4976226;28;20566;-77
2022/10/01 00:49:41;;;;;;;12.23;4.50;;;19.60;86.70;;;;;;4973320;28;20731;-77
2022/10/01 00:52:13;;;;;;;14.17;4.77;;;19.60;86.60;;;;;;4973606;28;20249;-77
2022/10/01 00:54:46;;;;;;;8.87;4.13;;;19.60;86.60;;;;;;4971066;28;20224;-77
2022/10/01 00:57:17;;;;;;;9.80;3.93;;;19.60;86.80;;;;;;4968450;28;20607;-77
2022/10/01 00:59:47;;;;;;;8.73;3.97;;;19.60;86.80;;;;;;4967400;28;20248;-77
2022/10/01 01:02:15;;;;;;;9.43;3.90;;;19.50;87.20;;;;;;4966846;28;20264;-77
2022/10/01 01:04:44;;;;;;;7.73;3.67;;;19.50;87.60;;;;;;4967639;28;20198;-78
2022/10/01 01:07:12;;;;;;;5.50;3.60;;;19.50;88.00;;;;;;4966098;28;20206;-77
2022/10/01 01:09:44;;;;;;;12.60;3.63;;;19.50;88.20;;;;;;4974612;28;20282;-77
2022/10/01 01:12:24;;;;;;;9.57;3.77;;;19.50;88.20;;;;;;4965473;28;20264;-78
2022/10/01 01:15:03;;;;;;;5.93;3.63;;;19.50;87.80;;;;;;4965847;28;20194;-77
2022/10/01 01:17:39;;;;;;;6.33;3.70;;;19.50;87.60;;;;;;4969405;28;20197;-77
2022/10/01 01:20:26;;;;;;;5.73;3.00;;;19.50;87.40;;;;;;4969215;28;20241;-76
2022/10/01 01:23:10;;;;;;;8.07;3.57;;;19.50;87.30;;;;;;4978010;28;20194;-77
2022/10/01 01:25:47;;;;;;;6.53;3.63;;;19.50;87.10;;;;;;4970199;28;20617;-77
2022/10/01 01:28:23;;;;;;;6.83;3.90;;;19.40;87.20;;;;;;4966147;28;20194;-77
2022/10/01 01:30:57;;;;;;;11.03;4.47;;;19.40;87.20;;;;;;4977416;28;20283;-77
2022/10/01 01:33:29;;;;;;;10.03;4.20;;;19.40;87.30;;;;;;4969341;28;20186;-76
2022/10/01 01:36:04;;;;;;;8.67;4.40;;;19.40;87.20;;;;;;4972516;28;20678;-78
2022/10/01 01:38:38;;;;;;;9.90;3.97;;;19.40;87.20;;;;;;4970885;28;20225;-78
2022/10/01 01:41:08;;;;;;;7.27;4.00;;;19.40;87.10;;;;;;4968142;28;20194;-77
2022/10/01 01:43:41;;;;;;;11.27;4.47;;;19.40;87.00;;;;;;4978131;28;20201;-76
2022/10/01 01:46:10;;;;;;;8.13;4.40;;;19.40;87.00;;;;;;4973430;28;20226;-75
2022/10/01 01:48:40;;;;;;;9.23;4.20;;;19.40;86.90;;;;;;4973838;28;20646;-78
2022/10/01 01:51:14;;;;;;;8.67;4.33;;;19.40;86.80;;;;;;4976009;28;20673;-76
2022/10/01 01:53:42;;;;;;;11.47;4.60;;;19.40;86.70;;;;;;4978769;28;20194;-77
2022/10/01 01:56:11;;;;;;;8.50;4.30;;;19.40;86.70;;;;;;4967493;28;20221;-76
2022/10/01 01:58:40;;;;;;;9.27;4.67;;;19.40;86.70;;;;;;4972382;28;20280;-76
2022/10/01 02:01:34;;;;;;;12.27;5.10;;;19.40;86.70;;;;;;4974638;28;20197;-75
2022/10/01 02:04:06;;;;;;;11.53;4.93;;;19.40;86.80;;;;;;4965665;28;20209;-76
2022/10/01 02:06:46;;;;;;;13.77;5.57;;;19.40;86.70;;;;;;4969529;28;20248;-76
2022/10/01 02:09:26;;;;;;;13.13;5.30;;;19.40;86.60;;;;;;4974339;28;20288;-76
2022/10/01 02:12:08;;;;;;;9.90;4.63;;;19.40;86.60;;;;;;4967298;28;20773;-75
2022/10/01 02:14:45;;;;;;;8.90;4.83;;;19.40;86.60;;;;;;4967301;28;20202;-76
2022/10/01 02:17:20;;;;;;;12.00;5.30;;;19.40;86.60;;;;;;4971183;28;20238;-75
2022/10/01 02:19:57;;;;;;;10.27;5.33;;;19.30;86.40;;;;;;4969227;28;20272;-77
2022/10/01 02:22:33;;;;;;;9.77;4.90;;;19.30;86.60;;;;;;4975751;28;20613;-75
2022/10/01 02:25:05;;;;;;;12.27;4.93;;;19.30;86.60;;;;;;4972443;28;20663;-76
2022/10/01 02:27:38;;;;;;;8.30;5.20;;;19.30;86.60;;;;;;4971369;28;20197;-76
2022/10/01 02:30:10;;;;;;;8.10;4.90;;;19.30;86.70;;;;;;4975516;28;20198;-76
2022/10/01 02:32:40;;;;;;;15.63;6.07;;;19.20;86.60;;;;;;4970122;28;20711;-75
2022/10/01 02:35:12;;;;;;;11.83;6.00;;;19.20;86.60;;;;;;4967223;28;20202;-76
2022/10/01 02:37:43;;;;;;;12.80;6.40;;;19.20;86.60;;;;;;4978226;28;20660;-78
2022/10/01 02:40:16;;;;;;;11.53;5.63;;;19.20;86.60;;;;;;4969994;28;20267;-78
2022/10/01 02:42:49;;;;;;;12.80;5.70;;;19.20;86.70;;;;;;4964880;28;20627;-78
2022/10/01 02:45:22;;;;;;;11.03;5.63;;;19.10;86.70;;;;;;4974133;28;20238;-76
2022/10/01 02:47:54;;;;;;;9.70;5.13;;;19.10;86.70;;;;;;4975549;28;20622;-75
2022/10/01 02:50:26;;;;;;;14.83;5.97;;;19.10;86.70;;;;;;4969286;28;20606;-75
2022/10/01 02:53:02;;;;;;;10.80;5.63;;;19.10;86.70;;;;;;4965867;28;20218;-76
2022/10/01 02:55:35;;;;;;;11.33;4.63;;;19.00;86.70;;;;;;4971122;28;20271;-76
2022/10/01 02:58:02;;;;;;;11.93;5.97;;;19.00;86.70;;;;;;4972072;28;20277;-75
2022/10/01 03:00:32;;;;;;;9.13;5.43;;;19.00;86.70;;;;;;4969624;28;20222;-76
2022/10/01 03:03:01;;;;;;;11.87;5.80;;;18.90;86.90;;;;;;4966806;28;20225;-75
2022/10/01 03:05:29;;;;;;;8.47;5.40;;;18.90;86.90;;;;;;4978086;28;20225;-78
2022/10/01 03:07:57;;;;;;;12.80;5.33;;;18.90;87.00;;;;;;4967721;28;20613;-78
2022/10/01 03:10:26;;;;;;;11.10;5.43;;;18.90;87.00;;;;;;4968277;28;20228;-78
2022/10/01 03:12:59;;;;;;;12.73;6.60;;;18.80;87.00;;;;;;4965390;28;20222;-78
2022/10/01 03:15:28;;;;;;;11.20;6.70;;;18.80;87.00;;;;;;4967934;28;20279;-78
2022/10/01 03:17:57;;;;;;;11.67;6.30;;;18.80;87.00;;;;;;4961931;28;20209;-79
2022/10/01 03:20:26;;;;;;;14.27;6.43;;;18.80;87.10;;;;;;4963681;28;20241;-78
2022/10/01 03:22:54;;;;;;;14.27;7.47;;;18.80;87.20;;;;;;4977659;28;20190;-78
2022/10/01 03:25:22;;;;;;;12.03;7.00;;;18.80;87.30;;;;;;4967830;28;20221;-76
2022/10/01 03:27:51;;;;;;;11.97;6.50;;;18.80;87.30;;;;;;4968793;28;20268;-75
2022/10/01 03:30:20;;;;;;;10.60;6.80;;;18.80;87.30;;;;;;4971508;28;20659;-75
2022/10/01 03:32:48;;;;;;;13.33;6.23;;;18.80;87.30;;;;;;4971659;28;20275;-75
2022/10/01 03:35:19;;;;;;;12.80;6.37;;;18.80;87.30;;;;;;4973109;28;20202;-76
2022/10/01 03:37:48;;;;;;;10.60;5.80;;;18.80;87.30;;;;;;4977631;28;20645;-75
2022/10/01 03:40:16;;;;;;;15.10;5.90;;;18.80;87.40;;;;;;4976654;28;20201;-76
2022/10/01 03:42:44;;;;;;;13.40;5.83;;;18.80;87.40;;;;;;4975800;28;20231;-75
2022/10/01 03:45:13;;;;;;;10.27;6.33;;;18.80;87.60;;;;;;4968738;28;20227;-76
2022/10/01 03:47:41;;;;;;;11.03;6.13;;;18.70;87.50;;;;;;4968407;28;20225;-76
2022/10/01 03:50:09;;;;;;;13.67;6.03;;;18.70;87.50;;;;;;4968658;28;20238;-77
2022/10/01 03:52:41;;;;;;;11.03;6.37;;;18.70;87.60;;;;;;4968536;28;20761;-76
2022/10/01 03:55:09;;;;;;;12.43;6.70;;;18.70;87.70;;;;;;4969528;28;20190;-76
2022/10/01 03:57:38;;;;;;;12.53;6.23;;;18.70;87.70;;;;;;4974024;28;20190;-76
2022/10/01 04:00:07;;;;;;;17.07;6.37;;;18.70;87.50;;;;;;4976460;28;20867;-76
2022/10/01 04:02:35;;;;;;;16.87;6.70;;;18.70;87.60;;;;;;4975723;28;20261;-76
2022/10/01 04:05:04;;;;;;;15.13;6.70;;;18.70;87.60;;;;;;4977003;28;20204;-76
2022/10/01 04:07:32;;;;;;;18.57;7.90;;;18.60;87.50;;;;;;4966813;28;20225;-75
2022/10/01 04:10:02;;;;;;;20.03;6.57;;;18.60;87.70;;;;;;4971917;28;20221;-75
2022/10/01 04:12:30;;;;;;;15.80;6.70;;;18.60;87.70;;;;;;4975282;28;20276;-75
2022/10/01 04:14:59;;;;;;;13.90;7.80;;;18.60;87.70;;;;;;4969225;28;20292;-75
2022/10/01 04:17:27;;;;;;;16.23;7.80;;;18.60;87.80;;;;;;4948997;28;20860;-75
2022/10/01 04:19:56;;;;;;;18.20;7.70;;;18.60;87.80;;;;;;4948378;28;20214;-75
2022/10/01 04:22:24;;;;;;;21.60;8.93;;;18.50;87.80;;;;;;4957771;28;20210;-75
2022/10/01 04:24:53;;;;;;;15.23;7.80;;;18.50;87.80;;;;;;4950586;28;20257;-76
2022/10/01 04:27:24;;;;;;;17.10;8.10;;;18.50;87.90;;;;;;4957369;28;20202;-75
2022/10/01 04:29:53;;;;;;;14.83;8.43;;;18.50;88.00;;;;;;4951276;28;20195;-75
2022/10/01 04:32:30;;;;;;;17.03;8.23;;;18.50;88.00;;;;;;4921041;28;20205;-75
2022/10/01 04:34:59;;;;;;;13.67;8.07;;;18.50;88.10;;;;;;4946237;28;20231;-76
2022/10/01 04:37:27;;;;;;;19.23;8.63;;;18.50;88.10;;;;;;4959311;28;20190;-76
2022/10/01 04:39:55;;;;;;;13.87;7.67;;;18.50;88.30;;;;;;4952791;28;20217;-75
2022/10/01 04:42:25;;;;;;;17.40;7.73;;;18.50;88.30;;;;;;4949561;28;20194;-75
2022/10/01 04:44:56;;;;;;;14.20;8.50;;;18.50;88.30;;;;;;4947150;28;20269;-77
2022/10/01 04:47:24;;;;;;;20.93;9.00;;;18.50;88.30;;;;;;4959969;28;20240;-75
2022/10/01 04:49:52;;;;;;;19.83;9.33;;;18.50;88.40;;;;;;4958699;28;20269;-75
2022/10/01 04:52:23;;;;;;;21.73;9.70;;;18.50;88.50;;;;;;4956950;28;20242;-75
2022/10/01 04:54:51;;;;;;;14.70;9.27;;;18.50;88.60;;;;;;4944770;28;20631;-75
2022/10/01 04:57:20;;;;;;;18.07;8.50;;;18.50;88.60;;;;;;4953973;28;20237;-75
2022/10/01 04:59:50;;;;;;;20.40;8.77;;;18.50;88.70;;;;;;4950437;28;20253;-76
2022/10/01 05:02:19;;;;;;;18.77;8.50;;;18.50;88.80;;;;;;4953180;28;20198;-76
2022/10/01 05:04:47;;;;;;;20.27;9.10;;;18.60;88.90;;;;;;4956270;28;20201;-75
2022/10/01 05:07:15;;;;;;;19.77;9.03;;;18.60;89.00;;;;;;4953385;28;20234;-75
2022/10/01 05:09:44;;;;;;;21.20;8.47;;;18.60;89.10;;;;;;4956516;28;20249;-76
2022/10/01 05:12:12;;;;;;;23.80;8.80;;;18.60;89.40;;;;;;4959614;28;20198;-75
2022/10/01 05:14:40;;;;;;;15.10;8.30;;;18.60;89.50;;;;;;4955444;28;20751;-75
2022/10/01 05:17:10;;;;;;;14.37;7.57;;;18.60;89.70;;;;;;4950742;28;20308;-75
2022/10/01 05:19:38;;;;;;;13.03;6.10;;;18.70;89.90;;;;;;4955470;28;20622;-75
2022/10/01 05:22:07;;;;;;;11.20;6.82;;;18.70;89.90;;;;;;4947096;28;20476;-75
2022/10/01 05:24:35;;;;;;;8.80;5.73;;;18.80;90.50;;;;;;4947553;28;20266;-76
2022/10/01 05:27:03;;;;;;;8.57;5.97;;;18.80;90.50;;;;;;4954108;28;20666;-76
2022/10/01 05:29:32;;;;;;;10.37;5.77;;;18.80;90.40;;;;;;4957809;28;20621;-77
2022/10/01 05:32:00;;;;;;;10.20;5.37;;;18.80;90.40;;;;;;4961514;28;20227;-75
2022/10/01 05:34:30;;;;;;;11.73;5.50;;;18.90;90.40;;;;;;4959713;28;20245;-75
2022/10/01 05:36:58;;;;;;;10.03;5.10;;;18.90;90.30;;;;;;4954003;28;20198;-76
2022/10/01 05:39:27;;;;;;;9.87;4.90;;;19.00;90.30;;;;;;4958928;28;20634;-76
2022/10/01 05:41:55;;;;;;;8.63;4.67;;;19.10;90.30;;;;;;4955128;28;20199;-76
2022/10/01 05:44:24;;;;;;;16.93;4.63;;;19.10;90.30;;;;;;4954685;28;20276;-76
2022/10/01 05:46:52;;;;;;;8.37;4.47;;;19.10;90.20;;;;;;4958863;28;20202;-76
2022/10/01 05:49:23;;;;;;;7.63;4.83;;;19.20;90.20;;;;;;4948865;28;20218;-76
2022/10/01 05:51:52;;;;;;;8.63;4.30;;;19.20;90.10;;;;;;4951644;28;20226;-76
2022/10/01 05:54:22;;;;;;;11.20;4.33;;;19.20;90.10;;;;;;4955719;28;20249;-75
2022/10/01 05:56:50;;;;;;;8.00;4.57;;;19.30;90.10;;;;;;4956354;28;20195;-76
2022/10/01 05:59:19;;;;;;;8.43;4.37;;;19.40;90.00;;;;;;4959256;28;20189;-75
2022/10/01 06:01:47;;;;;;;7.07;4.57;;;19.40;90.00;;;;;;4955081;28;20249;-75
2022/10/01 06:04:15;;;;;;;10.57;4.90;;;19.50;90.00;;;;;;4952017;28;20660;-76
2022/10/01 06:06:43;;;;;;;9.37;4.33;;;19.60;90.00;;;;;;4954052;28;20218;-76
2022/10/01 06:09:14;;;;;;;6.97;4.03;;;19.60;89.90;;;;;;4957752;28;20198;-76
2022/10/01 06:11:42;;;;;;;9.40;4.57;;;19.70;89.90;;;;;;4951435;28;20672;-78
2022/10/01 06:14:11;;;;;;;9.17;4.57;;;19.80;89.70;;;;;;4951032;28;20230;-77
2022/10/01 06:16:39;;;;;;;10.20;4.43;;;19.90;89.70;;;;;;4960281;28;20234;-78
2022/10/01 06:19:08;;;;;;;8.57;4.72;;;20.00;89.70;;;;;;4955424;28;20226;-78
2022/10/01 06:21:36;;;;;;;7.30;3.70;;;20.00;89.60;;;;;;4949526;28;20293;-78
2022/10/01 06:24:08;;;;;;;7.10;3.80;;;20.10;89.40;;;;;;4960087;28;20202;-76
2022/10/01 06:26:38;;;;;;;7.00;4.00;;;20.20;89.40;;;;;;4965658;28;20237;-77
2022/10/01 06:29:06;;;;;;;8.43;4.07;;;20.30;89.30;;;;;;4953837;28;20245;-77
2022/10/01 06:31:34;;;;;;;10.00;3.70;;;20.40;89.20;;;;;;4945689;28;20199;-77
2022/10/01 06:34:03;;;;;;;10.77;4.50;;;20.50;89.10;;;;;;4955033;28;20388;-77
2022/10/01 06:36:33;;;;;;;8.23;4.05;;;20.60;88.90;;;;;;4957841;28;20198;-77
2022/10/01 06:39:01;;;;;;;8.82;3.90;;;20.60;88.80;;;;;;4944089;28;20198;-75
2022/10/01 06:41:30;;;;;;;10.95;4.20;;;20.70;88.50;;;;;;4952508;28;20715;-76
2022/10/01 06:44:00;;;;;;;7.55;3.17;;;20.70;88.40;;;;;;4952280;28;20234;-76
2022/10/01 06:46:28;;;;;;;10.00;3.55;;;20.80;88.20;;;;;;4951796;28;20218;-75
2022/10/01 06:48:57;;;;;;;10.40;4.57;;;20.90;88.30;;;;;;4962885;28;20246;-76
2022/10/01 06:54:09;;;;;;;8.82;4.10;;;21.10;88.00;;;;;;4951212;28;20702;-75
2022/10/01 06:56:37;;;;;;;7.03;3.60;;;21.10;87.80;;;;;;4952506;28;20245;-77
2022/10/01 06:59:20;;;;;;;10.45;4.03;;;21.20;87.70;;;;;;4955297;28;20198;-75
2022/10/01 07:01:54;;;;;;;5.50;3.08;;;21.30;87.70;;;;;;4942209;28;20203;-77
2022/10/01 07:04:24;;;;;;;7.38;3.00;;;21.40;87.50;;;;;;4939143;29;20632;-75
2022/10/01 07:06:54;;;;;;;6.93;2.97;;;21.50;87.30;;;;;;4951738;28;20198;-75
2022/10/01 07:09:24;;;;;;;4.95;2.60;;;21.60;87.10;;;;;;4945554;28;20214;-75
2022/10/01 07:11:53;;;;;;;5.05;2.33;;;21.70;86.90;;;;;;4945182;28;20242;-75
2022/10/01 07:14:23;;;;;;;6.15;2.30;;;21.80;86.60;;;;;;4949233;28;20300;-74
2022/10/01 07:16:51;;;;;;;6.20;2.45;;;21.90;86.20;;;;;;4943199;29;20227;-75
2022/10/01 07:19:19;;;;;;;6.82;2.45;;;22.00;85.90;;;;;;4951059;28;20714;-75
2022/10/01 07:21:48;;;;;;;4.40;2.05;;;22.10;85.80;;;;;;4943524;28;20221;-74
2022/10/01 07:24:16;;;;;;;4.35;2.28;;;22.20;85.00;;;;;;4945142;28;20282;-74
2022/10/01 07:26:46;;;;;;;6.32;2.42;;;22.40;84.60;;;;;;4945513;29;20190;-74
2022/10/01 07:29:15;;;;;;;4.82;2.30;;;22.50;84.30;;;;;;4956430;28;20651;-75
2022/10/01 07:31:58;;;;;;;6.68;2.35;;;22.60;83.50;;;;;;4949760;28;20222;-76
2022/10/01 07:34:26;;;;;;;6.78;2.08;;;22.70;82.90;;;;;;4937818;28;20222;-74
2022/10/01 07:36:55;;;;;;;5.00;2.00;;;22.80;82.30;;;;;;4943032;28;20258;-74
2022/10/01 07:39:24;;;;;;;5.18;2.35;;;22.90;82.50;;;;;;4950376;28;20249;-74
2022/10/01 07:41:52;;;;;;;3.17;2.13;;;23.00;81.70;;;;;;4949695;28;20202;-75
2022/10/01 07:44:22;;;;;;;2.58;1.60;;;23.10;81.40;;;;;;4950810;28;20186;-74
2022/10/01 07:46:50;;;;;;;7.03;2.08;;;23.10;81.20;;;;;;4943882;28;20206;-75
2022/10/01 07:49:20;;;;;;;3.28;1.77;;;23.20;81.00;;;;;;4950960;28;20272;-75
2022/10/01 07:51:48;;;;;;;5.10;2.28;;;23.30;80.80;;;;;;4951935;28;20343;-75
2022/10/01 07:54:17;;;;;;;5.57;2.60;;;23.30;80.60;;;;;;4957026;28;20266;-75
2022/10/01 07:56:47;;;;;;;4.75;3.10;;;23.40;80.80;;;;;;4957924;28;20194;-75
2022/10/01 07:59:15;;;;;;;21.13;3.47;;;23.40;80.60;;;;;;4954408;28;20280;-75
2022/10/01 08:01:51;;;;;;;5.15;2.75;;;23.50;80.60;;;;;;4953151;28;20221;-75
2022/10/01 08:07:08;;;;;;;330.35;32.58;;;23.60;80.30;;;;;;4950972;28;20190;-75
2022/10/01 08:09:37;;;;;;;52.85;6.97;;;23.70;80.30;;;;;;4950030;28;20230;-76
2022/10/01 08:12:05;;;;;;;8.05;2.63;;;23.70;80.00;;;;;;4953247;28;20281;-75
2022/10/01 08:14:33;;;;;;;4.72;1.90;;;23.80;79.60;;;;;;4947175;28;20225;-76
2022/10/01 08:17:02;;;;;;;32.35;4.53;;;23.90;79.10;;;;;;4957067;28;20253;-76
2022/10/01 08:19:33;;;;;;;9.15;3.00;;;23.90;78.20;;;;;;4958415;28;21006;-75
2022/10/01 08:22:01;;;;;;;5.43;1.92;;;24.00;78.40;;;;;;4946405;28;20234;-75
2022/10/01 08:24:30;;;;;;;4.53;2.10;;;24.10;78.30;;;;;;4946791;29;20277;-76
2022/10/01 08:26:58;;;;;;;5.75;2.22;;;24.20;77.60;;;;;;4956914;28;20198;-77
2022/10/01 08:29:27;;;;;;;5.72;1.67;;;24.20;76.60;;;;;;4952116;28;20663;-75
2022/10/01 08:31:55;;;;;;;6.80;2.38;;;24.30;76.70;;;;;;4950674;28;20254;-75
2022/10/01 08:34:23;;;;;;;5.32;2.15;;;24.40;76.60;;;;;;4945261;28;20195;-75
2022/10/01 08:36:53;;;;;;;9.02;2.40;;;24.50;76.60;;;;;;4955022;28;20218;-75
2022/10/01 08:39:22;;;;;;;4.93;2.33;;;24.50;76.40;;;;;;4957970;28;20222;-75
2022/10/01 08:41:57;;;;;;;8.50;2.85;;;24.60;76.40;;;;;;4957525;28;20663;-75
2022/10/01 08:44:31;;;;;;;9.73;2.42;;;24.70;76.10;;;;;;4965680;28;20251;-75
2022/10/01 08:47:04;;;;;;;9.52;2.72;;;24.70;75.50;;;;;;4953258;28;20234;-74
2022/10/01 08:49:40;;;;;;;7.45;2.30;;;24.80;75.50;;;;;;4956123;28;20186;-75
2022/10/01 08:52:18;;;;;;;10.43;2.80;;;24.90;75.40;;;;;;4954746;28;20190;-75
2022/10/01 08:54:51;;;;;;;4.90;2.55;;;25.00;75.40;;;;;;4953570;28;20286;-75
2022/10/01 08:57:23;;;;;;;7.35;3.22;;;25.10;75.20;;;;;;4953770;28;20210;-75
2022/10/01 08:59:55;;;;;;;12.45;5.22;;;25.20;75.20;;;;;;4954965;28;20189;-76
2022/10/01 09:02:25;;;;;;;10.40;3.20;;;25.20;74.70;;;;;;4952046;28;20664;-75
2022/10/01 09:04:56;;;;;;;6.88;3.15;;;25.40;74.70;;;;;;4950741;28;20234;-75
2022/10/01 09:07:45;;;;;;;10.77;4.70;;;25.40;74.80;;;;;;4953648;28;20234;-75
2022/10/01 09:10:35;;;;;;;6.38;2.67;;;25.50;74.60;;;;;;4944306;28;20661;-77
2022/10/01 09:13:20;;;;;;;7.32;2.78;;;25.60;74.40;;;;;;4953266;28;20568;-76
2022/10/01 09:15:56;;;;;;;8.68;2.65;;;25.70;74.10;;;;;;4954549;28;20568;-75
2022/10/01 09:18:34;;;;;;;13.32;5.63;;;25.80;74.30;;;;;;4956062;28;20198;-76
2022/10/01 09:21:13;;;;;;;14.13;5.10;;;25.90;73.80;;;;;;4946054;28;20337;-75
2022/10/01 09:23:56;;;;;;;5.75;3.38;;;26.00;73.30;;;;;;4952330;28;20228;-76
2022/10/01 09:26:24;;;;;;;20.92;4.85;;;26.10;73.20;;;;;;4956955;28;20277;-75
2022/10/01 09:28:55;;;;;;;7.32;2.20;;;26.20;73.60;;;;;;4955026;28;20536;-75
2022/10/01 09:31:28;;;;;;;11.18;2.97;;;26.20;73.00;;;;;;4947686;28;20209;-75
2022/10/01 09:34:03;;;;;;;8.75;2.53;;;26.30;72.80;;;;;;4961563;28;20200;-75
2022/10/01 09:36:37;;;;;;;6.55;2.72;;;26.40;72.40;;;;;;4961723;28;20679;-76
2022/10/01 09:39:15;;;;;;;17.70;3.00;;;26.40;71.90;;;;;;4953235;28;20190;-75
2022/10/01 09:41:49;;;;;;;9.23;2.70;;;26.50;71.50;;;;;;4950511;28;20281;-75
2022/10/01 09:44:22;;;;;;;72.85;24.13;;;26.60;71.40;;;;;;4943673;28;20476;-77
2022/10/01 09:46:51;;;;;;;16.58;9.07;;;26.70;70.50;;;;;;4955395;28;20198;-75
2022/10/01 09:49:28;;;;;;;108.88;15.38;;;26.70;70.00;;;;;;4948863;28;20616;-75
2022/10/01 09:52:01;;;;;;;56.30;8.57;;;26.80;69.40;;;;;;4955572;28;20261;-76
2022/10/01 09:54:38;;;;;;;12.48;2.90;;;26.80;69.40;;;;;;4956691;28;20261;-76
2022/10/01 09:57:13;;;;;;;9.68;2.83;;;26.80;69.00;;;;;;4949202;28;20264;-76
2022/10/01 09:59:48;;;;;;;12.90;3.05;;;26.90;68.80;;;;;;4949431;28;20194;-76
2022/10/01 10:02:22;;;;;;;10.73;3.17;;;27.00;68.50;;;;;;4955416;28;20245;-75
2022/10/01 10:05:00;;;;;;;9.38;2.67;;;27.00;67.60;;;;;;4950451;28;20204;-75
2022/10/01 10:07:31;;;;;;;6.28;2.80;;;27.00;66.50;;;;;;4952565;28;20307;-75
2022/10/01 10:10:14;;;;;;;8.40;2.65;;;27.00;66.20;;;;;;4954304;28;20278;-76
2022/10/01 10:12:43;;;;;;;134.50;14.90;;;27.10;65.60;;;;;;4949417;28;20193;-75
2022/10/01 10:15:16;;;;;;;35.83;6.45;;;27.10;66.30;;;;;;4953094;28;20234;-76
2022/10/01 10:17:50;;;;;;;11.50;3.15;;;27.20;66.80;;;;;;4949544;28;20233;-76
2022/10/01 10:20:25;;;;;;;13.38;4.22;;;27.20;66.60;;;;;;4952895;28;20198;-76
2022/10/01 10:22:54;;;;;;;14.75;4.60;;;27.20;66.10;;;;;;4956599;28;20600;-74
2022/10/01 10:25:25;;;;;;;9.85;2.80;;;27.20;65.20;;;;;;4955380;28;20289;-75
2022/10/01 10:27:55;;;;;;;26.10;4.03;;;27.30;65.40;;;;;;4950980;28;20226;-76
2022/10/01 10:30:25;;;;;;;8.95;3.22;;;27.30;65.40;;;;;;4949655;28;20194;-75
2022/10/01 10:33:02;;;;;;;5.18;2.55;;;27.40;64.50;;;;;;4952604;28;20262;-75
2022/10/01 10:35:30;;;;;;;1152.03;173.25;;;27.50;64.30;;;;;;4951416;28;20651;-75
2022/10/01 10:38:01;;;;;;;45.80;10.25;;;27.50;63.80;;;;;;4958229;28;20229;-75
2022/10/01 10:40:39;;;;;;;8.00;3.97;;;27.60;63.70;;;;;;4951832;28;20195;-75
2022/10/01 10:43:21;;;;;;;38.63;8.20;;;27.70;63.10;;;;;;4950192;28;20230;-75
2022/10/01 10:45:54;;;;;;;12.05;3.20;;;27.80;62.90;;;;;;4951467;28;20211;-75
2022/10/01 10:48:28;;;;;;;18.20;8.80;;;27.80;61.70;;;;;;4953617;28;20228;-75
2022/10/01 10:51:00;;;;;;;12.63;5.65;;;27.90;61.30;;;;;;4952980;28;20190;-75
2022/10/01 10:53:39;;;;;;;12.43;3.35;;;27.90;61.50;;;;;;4950276;28;20301;-76
2022/10/01 10:56:25;;;;;;;11.00;3.05;;;27.90;61.60;;;;;;4953020;28;20214;-75
2022/10/01 10:59:25;;;;;;;36.53;7.18;;;28.00;61.90;;;;;;4957507;28;20191;-74
2022/10/01 11:01:53;;;;;;;12.38;3.47;;;28.00;60.70;;;;;;4958943;28;20256;-74
2022/10/01 11:04:29;;;;;;;9.77;2.80;;;28.00;61.20;;;;;;4953611;28;20199;-74
2022/10/01 11:07:00;;;;;;;6.07;2.13;;;28.10;60.50;;;;;;4943405;28;20512;-74
2022/10/01 11:09:42;;;;;;;4.72;1.80;;;28.10;58.70;;;;;;4955589;28;20190;-74
2022/10/01 11:12:22;;;;;;;8.85;5.22;;;28.10;58.80;;;;;;4951152;28;20536;-75
2022/10/01 11:15:05;;;;;;;11.73;6.07;;;28.10;59.10;;;;;;4954541;28;20598;-75
2022/10/01 11:18:04;;;;;;;52.88;8.38;;;28.10;58.90;;;;;;4950825;28;20214;-75
2022/10/01 11:20:42;;;;;;;8.02;3.35;;;28.10;59.20;;;;;;4950577;28;20242;-74
2022/10/01 11:23:36;;;;;;;4.85;2.60;;;28.10;58.90;;;;;;4945617;28;20248;-75
2022/10/01 11:26:18;;;;;;;9.23;2.10;;;28.20;59.30;;;;;;4949861;28;20202;-74
2022/10/01 11:29:01;;;;;;;10.10;2.00;;;28.30;59.00;;;;;;4953136;28;20252;-74
2022/10/01 11:31:38;;;;;;;9.40;2.58;;;28.30;58.90;;;;;;4956262;28;20232;-75
2022/10/01 11:34:36;;;;;;;10.40;2.67;;;28.40;59.00;;;;;;4950579;28;20194;-75
2022/10/01 11:37:11;;;;;;;11.10;2.50;;;28.40;59.10;;;;;;4935732;28;20218;-75
2022/10/01 11:39:44;;;;;;;21.70;4.22;;;28.40;58.90;;;;;;4956489;28;20201;-74
2022/10/01 11:42:16;;;;;;;8.30;2.58;;;28.40;59.20;;;;;;4949326;28;20281;-75
2022/10/01 11:44:51;;;;;;;5.88;2.35;;;28.50;59.10;;;;;;4953305;28;20190;-74
2022/10/01 11:47:25;;;;;;;5.85;2.72;;;28.50;59.20;;;;;;4963953;28;20225;-74
2022/10/01 11:50:01;;;;;;;5.53;2.00;;;28.50;59.00;;;;;;4950291;29;20233;-75
2022/10/01 11:52:37;;;;;;;6.38;2.65;;;28.50;59.10;;;;;;4952116;28;20621;-74
2022/10/01 12:01:00;;;;;;;4.15;1.85;;;28.50;58.60;;;;;;4946198;28;20228;-74
2022/10/01 12:03:36;;;;;;;6.05;2.10;;;28.50;58.10;;;;;;4952435;28;20190;-75
2022/10/01 12:06:08;;;;;;;11.15;2.28;;;28.40;57.50;;;;;;4956647;28;20655;-75
2022/10/01 12:08:40;;;;;;;273.58;21.73;;;28.40;57.50;;;;;;4951663;28;20600;-73
2022/10/01 12:11:18;;;;;;;6.95;2.03;;;28.50;58.00;;;;;;4929242;29;20281;-74
2022/10/01 12:13:54;;;;;;;3.45;1.60;;;28.50;57.60;;;;;;4954642;28;20225;-73
2022/10/01 12:16:33;;;;;;;2.55;1.70;;;28.50;57.30;;;;;;4956198;28;20225;-74
2022/10/01 12:19:06;;;;;;;5.68;2.00;;;28.50;57.30;;;;;;4962895;28;20564;-78
2022/10/01 12:21:39;;;;;;;3.40;2.25;;;28.60;57.40;;;;;;4944252;28;20554;-76
2022/10/01 12:24:13;;;;;;;6.03;2.40;;;28.60;57.40;;;;;;4943286;28;20653;-76
2022/10/01 12:26:49;;;;;;;3.85;1.90;;;28.70;57.40;;;;;;4952821;29;20664;-76
2022/10/01 12:29:24;;;;;;;3.75;1.60;;;28.70;57.60;;;;;;4950231;28;20253;-75
2022/10/01 12:32:01;;;;;;;5.68;2.00;;;28.70;58.00;;;;;;4953682;28;20189;-76
2022/10/01 12:34:38;;;;;;;9.23;2.00;;;28.70;57.60;;;;;;4948872;28;20233;-78
2022/10/01 12:37:18;;;;;;;3.45;1.90;;;28.70;56.90;;;;;;4960287;28;20213;-78
2022/10/01 12:40:01;;;;;;;5.47;2.20;;;28.70;56.20;;;;;;4956960;28;20442;-78
2022/10/01 12:42:52;;;;;;;11.48;3.60;;;28.90;55.60;;;;;;4944811;28;20300;-76
2022/10/01 12:45:30;;;;;;;10.13;2.60;;;28.80;55.90;;;;;;4952233;28;20236;-78
2022/10/01 12:48:09;;;;;;;5.00;2.13;;;28.80;56.00;;;;;;4952835;28;20285;-77
2022/10/01 12:50:52;;;;;;;5.55;2.40;;;28.80;56.20;;;;;;4932324;29;20661;-75
2022/10/01 12:53:29;;;;;;;8.23;2.78;;;28.80;56.10;;;;;;4949859;28;20266;-77
2022/10/01 12:56:06;;;;;;;4.45;2.15;;;28.80;55.30;;;;;;4951328;28;20225;-76
2022/10/01 12:58:50;;;;;;;7.30;2.10;;;28.80;55.00;;;;;;4951696;28;20256;-77
2022/10/01 13:01:36;;;;;;;5.20;2.05;;;28.90;55.30;;;;;;4961800;28;20636;-76
2022/10/01 13:04:20;;;;;;;3.67;2.00;;;28.90;55.20;;;;;;4947581;28;20229;-76
2022/10/01 13:07:04;;;;;;;5.55;2.13;;;29.00;55.00;;;;;;4958620;28;20242;-78
2022/10/01 13:09:44;;;;;;;6.18;2.10;;;29.00;55.30;;;;;;4947704;28;20198;-78
2022/10/01 13:12:35;;;;;;;7.40;1.90;;;29.00;55.10;;;;;;4955324;28;20199;-77
2022/10/01 13:15:05;;;;;;;6.32;2.78;;;29.00;55.40;;;;;;4953250;28;20258;-78
2022/10/01 13:17:41;;;;;;;3.67;2.20;;;29.00;55.40;;;;;;4950219;28;20209;-77
2022/10/01 13:20:18;;;;;;;6.05;2.00;;;29.00;55.30;;;;;;4958755;28;20198;-78